createdAt,value
2024-03-24T00:00:24.216Z,7.505263
2024-03-24T00:05:45.816Z,7.550000
2024-03-24T00:10:22.266Z,7.536842
2024-03-24T00:15:21.811Z,7.548000
2024-03-24T00:20:21.725Z,7.483333
2024-03-24T00:25:21.827Z,7.473913
2024-03-24T00:30:21.883Z,7.485000
2024-03-24T00:35:45.799Z,7.510526
2024-03-24T00:40:21.681Z,7.489474
2024-03-24T00:45:22.035Z,7.415000
2024-03-24T00:50:21.811Z,7.386957
2024-03-24T00:55:21.769Z,7.395455
2024-03-24T01:00:21.792Z,7.427273
2024-03-24T01:05:34.888Z,7.395652
2024-03-24T01:10:21.722Z,7.366667
2024-03-24T01:15:22.188Z,7.373913
2024-03-24T01:20:21.798Z,7.357143
2024-03-24T01:25:21.768Z,7.300000
2024-03-24T01:30:21.798Z,7.230000
2024-03-24T01:35:21.863Z,7.114286
2024-03-24T01:40:21.702Z,7.125000
2024-03-24T01:45:21.780Z,7.070000
2024-03-24T01:50:21.845Z,6.985714
2024-03-24T01:55:33.914Z,6.947619
2024-03-24T02:00:21.761Z,6.931579
2024-03-24T02:05:21.841Z,6.895833
2024-03-24T02:10:21.751Z,6.868182
2024-03-24T02:15:22.261Z,6.895652
2024-03-24T02:20:21.793Z,6.795652
2024-03-24T02:25:21.842Z,6.727273
2024-03-24T02:30:21.792Z,6.650000
2024-03-24T02:35:33.871Z,6.650000
2024-03-24T02:40:21.805Z,6.680000
2024-03-24T02:45:33.791Z,6.752632
2024-03-24T02:50:21.834Z,6.744444
2024-03-24T02:55:21.983Z,6.768182
2024-03-24T03:00:21.846Z,6.700000
2024-03-24T03:05:33.815Z,6.719048
2024-03-24T03:10:21.836Z,6.705263
2024-03-24T03:15:22.142Z,6.728571
2024-03-24T03:20:21.774Z,6.704762
2024-03-24T03:25:21.823Z,6.663636
2024-03-24T03:30:21.831Z,6.676190
2024-03-24T03:35:21.785Z,6.714286
2024-03-24T03:40:21.844Z,6.680952
2024-03-24T03:45:21.843Z,6.647826
2024-03-24T03:50:33.883Z,6.631579
2024-03-24T03:55:33.910Z,6.730000
2024-03-24T04:00:21.968Z,6.750000
2024-03-24T04:05:21.847Z,6.733333
2024-03-24T04:10:21.908Z,6.818182
2024-03-24T04:15:22.308Z,6.845455
2024-03-24T04:20:21.777Z,6.870588
2024-03-24T04:25:21.996Z,6.923810
2024-03-24T04:30:21.883Z,7.120000
2024-03-24T04:35:21.880Z,7.294118
2024-03-24T04:40:21.866Z,7.455000
2024-03-24T04:45:21.952Z,7.621739
2024-03-24T04:50:21.841Z,7.887500
2024-03-24T04:55:21.811Z,8.121739
2024-03-24T05:00:33.893Z,8.234783
2024-03-24T05:05:22.024Z,8.320000
2024-03-24T05:10:21.989Z,8.343750
2024-03-24T05:15:21.893Z,8.445455
2024-03-24T05:20:22.113Z,8.700000
2024-03-24T05:25:21.920Z,8.862500
2024-03-24T05:30:34.007Z,8.921053
2024-03-24T05:35:21.892Z,8.929167
2024-03-24T05:40:21.882Z,8.782609
2024-03-24T05:45:21.968Z,9.038095
2024-03-24T05:50:22.172Z,8.944444
2024-03-24T05:55:21.795Z,9.128571
2024-03-24T06:00:21.876Z,9.280000
2024-03-24T06:05:21.922Z,9.109091
2024-03-24T06:10:34.023Z,9.233333
2024-03-24T06:15:21.759Z,9.433333
2024-03-24T06:20:34.288Z,9.242105
2024-03-24T06:25:33.994Z,9.310000
2024-03-24T06:30:21.760Z,9.384211
2024-03-24T06:35:21.862Z,9.370000
2024-03-24T06:40:22.040Z,9.388889
2024-03-24T06:45:21.716Z,9.552381
2024-03-24T06:50:21.879Z,9.256522
2024-03-24T06:55:21.958Z,9.536364
2024-03-24T07:00:35.837Z,9.620000
2024-03-24T07:05:22.028Z,9.857143
2024-03-24T07:10:21.935Z,9.904545
2024-03-24T07:15:21.770Z,9.984211
2024-03-24T07:20:21.859Z,10.009524
2024-03-24T07:25:22.269Z,9.668182
2024-03-24T07:30:21.901Z,9.676190
2024-03-24T07:35:21.885Z,9.975000
2024-03-24T07:40:21.779Z,10.068421
2024-03-24T07:45:34.090Z,10.018182
2024-03-24T07:50:21.869Z,9.942857
2024-03-24T07:55:22.297Z,10.230435
2024-03-24T08:00:21.907Z,10.231818
2024-03-24T08:05:22.213Z,10.475000
2024-03-24T08:10:21.881Z,10.666667
2024-03-24T08:15:21.844Z,10.600000
2024-03-24T08:20:21.969Z,10.479167
2024-03-24T08:25:22.206Z,10.700000
2024-03-24T08:30:22.042Z,10.581818
2024-03-24T08:35:23.732Z,10.730000
2024-03-24T08:40:21.936Z,10.823810
2024-03-24T08:45:21.768Z,10.609091
2024-03-24T08:50:34.182Z,10.668182
2024-03-24T08:55:33.903Z,10.755000
2024-03-24T09:00:21.942Z,10.619048
2024-03-24T09:05:21.799Z,10.845455
2024-03-24T09:10:21.806Z,10.822727
2024-03-24T09:15:21.940Z,10.490909
2024-03-24T09:20:33.911Z,10.970000
2024-03-24T09:25:22.200Z,10.752632
2024-03-24T09:30:21.937Z,10.847826
2024-03-24T09:35:21.796Z,10.386667
2024-03-24T09:40:21.906Z,10.430000
2024-03-24T09:45:21.892Z,10.950000
2024-03-24T09:50:22.077Z,10.378947
2024-03-24T09:55:21.906Z,10.847368
2024-03-24T10:00:21.960Z,11.009524
2024-03-24T10:05:21.797Z,10.905000
2024-03-24T10:10:21.952Z,10.729167
2024-03-24T10:15:34.097Z,10.559091
2024-03-24T10:20:21.825Z,10.940000
2024-03-24T10:25:21.976Z,11.100000
2024-03-24T10:30:21.865Z,10.850000
2024-03-24T10:35:21.827Z,10.905000
2024-03-24T10:40:33.939Z,10.704762
2024-03-24T10:45:21.762Z,10.978261
2024-03-24T10:50:45.831Z,11.109091
2024-03-24T10:55:23.029Z,10.933333
2024-03-24T11:00:21.754Z,10.442857
2024-03-24T11:05:21.854Z,10.550000
2024-03-24T11:10:57.804Z,10.629412
2024-03-24T11:15:21.860Z,11.066667
2024-03-24T11:20:21.828Z,11.422727
2024-03-24T11:25:58.818Z,11.527273
2024-03-24T11:30:21.698Z,11.544444
2024-03-24T11:35:34.669Z,11.731579
2024-03-24T11:40:21.807Z,11.559091
2024-03-24T11:45:34.001Z,11.210000
2024-03-24T11:50:21.869Z,11.133333
2024-03-24T11:55:22.173Z,11.400000
2024-03-24T12:00:21.826Z,11.250000
2024-03-24T12:05:21.788Z,10.910000
2024-03-24T12:10:22.742Z,10.738095
2024-03-24T12:15:21.826Z,10.335000
2024-03-24T12:20:22.077Z,10.230435
2024-03-24T12:25:21.788Z,10.361905
2024-03-24T12:30:21.912Z,10.321053
2024-03-24T12:35:21.852Z,10.427273
2024-03-24T12:40:21.788Z,10.185000
2024-03-24T12:45:33.803Z,10.322727
2024-03-24T12:50:31.695Z,10.590909
2024-03-24T12:55:21.760Z,10.895238
2024-03-24T13:00:21.805Z,11.190909
2024-03-24T13:05:21.861Z,10.983333
2024-03-24T13:10:22.880Z,11.387500
2024-03-24T13:15:21.810Z,11.573684
2024-03-24T13:20:21.721Z,11.495000
2024-03-24T13:25:21.715Z,11.421053
2024-03-24T13:30:21.776Z,11.165217
2024-03-24T13:35:21.883Z,11.009524
2024-03-24T13:40:21.828Z,11.035000
2024-03-24T13:45:21.904Z,11.652381
2024-03-24T13:50:21.755Z,11.513636
2024-03-24T13:55:21.721Z,11.310526
2024-03-24T14:00:33.904Z,11.481818
2024-03-24T14:05:21.797Z,11.780000
2024-03-24T14:10:45.853Z,11.857895
2024-03-24T14:15:46.024Z,11.909091
2024-03-24T14:20:21.906Z,11.820000
2024-03-24T14:25:22.163Z,11.738095
2024-03-24T14:30:22.071Z,11.872727
2024-03-24T14:35:21.802Z,11.727273
2024-03-24T14:40:21.858Z,11.878947
2024-03-24T14:45:21.967Z,12.080000
2024-03-24T14:50:21.813Z,11.905263
2024-03-24T14:55:33.891Z,11.895455
2024-03-24T15:00:21.699Z,11.800000
2024-03-24T15:05:21.773Z,11.870000
2024-03-24T15:10:21.753Z,11.687500
2024-03-24T15:15:21.750Z,11.640000
2024-03-24T15:20:21.865Z,11.595000
2024-03-24T15:25:33.847Z,11.126087
2024-03-24T15:30:22.271Z,10.870000
2024-03-24T15:35:21.873Z,10.805263
2024-03-24T15:40:21.895Z,10.836364
2024-03-24T15:45:21.779Z,10.823810
2024-03-24T15:50:21.859Z,10.795000
2024-03-24T15:55:21.787Z,10.838889
2024-03-24T16:00:22.286Z,10.831579
2024-03-24T16:05:21.927Z,10.868421
2024-03-24T16:10:21.982Z,10.840909
2024-03-24T16:15:21.803Z,10.818182
2024-03-24T16:20:21.807Z,10.747059
2024-03-24T16:25:21.862Z,10.685714
2024-03-24T16:30:33.970Z,10.638095
2024-03-24T16:35:33.835Z,10.757895
2024-03-24T16:40:21.824Z,10.805263
2024-03-24T16:45:21.726Z,10.708696
2024-03-24T16:50:21.783Z,10.547826
2024-03-24T16:55:21.856Z,10.478261
2024-03-24T17:00:21.821Z,10.471429
2024-03-24T17:05:21.841Z,10.421739
2024-03-24T17:10:21.868Z,10.391304
2024-03-24T17:15:33.978Z,10.490476
2024-03-24T17:20:21.777Z,10.427778
2024-03-24T17:25:33.880Z,10.485000
2024-03-24T17:30:34.861Z,10.552632
2024-03-24T17:35:21.802Z,10.655556
2024-03-24T17:40:21.772Z,10.505263
2024-03-24T17:45:33.930Z,10.368421
2024-03-24T17:50:21.785Z,10.518182
2024-03-24T17:55:21.855Z,10.582609
2024-03-24T18:00:34.047Z,10.573684
2024-03-24T18:05:21.921Z,10.789474
2024-03-24T18:10:21.902Z,10.852381
2024-03-24T18:15:21.767Z,10.523529
2024-03-24T18:20:33.959Z,10.094737
2024-03-24T18:25:21.859Z,10.352632
2024-03-24T18:30:21.788Z,10.558333
2024-03-24T18:35:21.842Z,10.540909
2024-03-24T18:40:21.857Z,10.695000
2024-03-24T18:45:21.772Z,10.576190
2024-03-24T18:50:21.701Z,10.586364
2024-03-24T18:55:21.877Z,10.495833
2024-03-24T19:01:21.969Z,9.989474
2024-03-24T19:05:21.837Z,10.120000
2024-03-24T19:10:21.882Z,10.072727
2024-03-24T19:15:21.875Z,9.968421
2024-03-24T19:20:21.784Z,9.848000
2024-03-24T19:25:21.797Z,9.900000
2024-03-24T19:30:21.837Z,10.415000
2024-03-24T19:35:45.824Z,10.804545
2024-03-24T19:40:21.888Z,10.826316
2024-03-24T19:45:34.608Z,10.986957
2024-03-24T19:50:21.790Z,11.213636
2024-03-24T19:55:21.784Z,11.259091
2024-03-24T20:00:21.855Z,11.104348
2024-03-24T20:05:33.761Z,11.163158
2024-03-24T20:10:21.666Z,10.895455
2024-03-24T20:15:33.875Z,10.755000
2024-03-24T20:20:21.772Z,10.575000
2024-03-24T20:25:21.822Z,10.460870
2024-03-24T20:30:21.820Z,10.361111
2024-03-24T20:35:22.141Z,10.310526
2024-03-24T20:40:21.793Z,10.233333
2024-03-24T20:45:21.854Z,10.208333
2024-03-24T20:50:33.812Z,10.252381
2024-03-24T20:55:21.765Z,10.221053
2024-03-24T21:00:21.808Z,10.247619
2024-03-24T21:05:21.766Z,10.216667
2024-03-24T21:10:21.744Z,10.290000
2024-03-24T21:15:21.744Z,10.521053
2024-03-24T21:20:21.785Z,10.818182
2024-03-24T21:25:21.912Z,10.714286
2024-03-24T21:30:33.916Z,10.700000
2024-03-24T21:35:21.818Z,10.689474
2024-03-24T21:40:34.337Z,10.684211
2024-03-24T21:45:21.775Z,10.695000
2024-03-24T21:50:21.786Z,10.600000
2024-03-24T21:55:21.945Z,10.650000
2024-03-24T22:00:33.957Z,10.795455
2024-03-24T22:05:21.874Z,11.158824
2024-03-24T22:10:21.775Z,11.122222
2024-03-24T22:15:21.742Z,11.218182
2024-03-24T22:20:33.885Z,11.405556
2024-03-24T22:25:21.747Z,11.315000
2024-03-24T22:30:21.779Z,11.790909
2024-03-24T22:35:21.857Z,11.747826
2024-03-24T22:40:21.701Z,11.580952
2024-03-24T22:45:21.726Z,11.608333
2024-03-24T22:50:21.768Z,11.395455
2024-03-24T22:55:22.080Z,11.345000
2024-03-24T23:00:21.789Z,10.929412
2024-03-24T23:05:21.890Z,10.831818
2024-03-24T23:10:21.760Z,10.904762
2024-03-24T23:15:21.788Z,10.933333
2024-03-24T23:20:21.754Z,10.847619
2024-03-24T23:25:21.846Z,10.700000
2024-03-24T23:30:33.916Z,10.458333
2024-03-24T23:35:21.817Z,10.284211
2024-03-24T23:40:34.098Z,10.225000
2024-03-24T23:45:21.781Z,9.975000
2024-03-24T23:50:21.789Z,9.744444
2024-03-24T23:55:22.192Z,9.155000
